createdAt,value
2022-08-14T00:03:58.546Z,4.05
2022-08-14T00:06:13.999Z,4.60
2022-08-14T00:08:44.380Z,5.60
2022-08-14T00:10:52.147Z,7.45
2022-08-14T00:12:57.356Z,4.47
2022-08-14T00:15:00.935Z,9.23
2022-08-14T00:17:06.490Z,8.30
2022-08-14T00:19:19.463Z,3.92
2022-08-14T00:21:29.254Z,4.75
2022-08-14T00:23:35.350Z,5.13
2022-08-14T00:25:42.074Z,4.65
2022-08-14T00:27:49.148Z,6.28
2022-08-14T00:29:57.130Z,5.75
2022-08-14T00:32:00.055Z,6.15
2022-08-14T00:34:36.830Z,4.85
2022-08-14T00:36:35.716Z,4.75
2022-08-14T00:38:50.253Z,5.05
2022-08-14T00:40:53.319Z,7.85
2022-08-14T00:42:57.635Z,3.78
2022-08-14T00:45:00.494Z,4.43
2022-08-14T00:47:06.057Z,5.05
2022-08-14T00:49:14.771Z,4.18
2022-08-14T00:51:18.121Z,3.55
2022-08-14T00:53:21.356Z,3.85
2022-08-14T00:55:27.834Z,6.53
2022-08-14T00:57:35.343Z,5.95
2022-08-14T00:59:39.495Z,6.97
2022-08-14T01:01:43.372Z,5.30
2022-08-14T01:03:52.625Z,3.78
2022-08-14T01:05:56.687Z,7.35
2022-08-14T01:08:01.379Z,7.63
2022-08-14T01:10:07.192Z,5.22
2022-08-14T01:12:13.003Z,4.68
2022-08-14T01:14:29.618Z,4.88
2022-08-14T01:16:32.562Z,6.25
2022-08-14T01:19:01.007Z,4.35
2022-08-14T01:21:09.318Z,6.18
2022-08-14T01:23:18.869Z,3.78
2022-08-14T01:25:23.048Z,5.13
2022-08-14T01:27:28.601Z,5.43
2022-08-14T01:30:01.451Z,7.18
2022-08-14T01:32:04.465Z,5.70
2022-08-14T01:35:21.072Z,5.93
2022-08-14T01:36:39.290Z,5.97
2022-08-14T01:38:48.798Z,5.93
2022-08-14T01:40:52.021Z,6.10
2022-08-14T01:42:57.202Z,5.10
2022-08-14T01:45:01.098Z,6.20
2022-08-14T01:47:21.812Z,5.78
2022-08-14T01:49:26.388Z,4.40
2022-08-14T01:51:41.055Z,5.82
2022-08-14T01:53:48.355Z,5.38
2022-08-14T01:55:58.981Z,5.67
2022-08-14T01:58:19.509Z,5.57
2022-08-14T02:00:23.963Z,9.93
2022-08-14T02:02:31.070Z,7.38
2022-08-14T02:04:56.865Z,4.28
2022-08-14T02:07:02.204Z,7.90
2022-08-14T02:09:22.372Z,8.13
2022-08-14T02:11:26.480Z,6.43
2022-08-14T02:13:32.067Z,7.53
2022-08-14T02:15:40.808Z,5.50
2022-08-14T02:17:46.591Z,6.30
2022-08-14T02:19:53.347Z,4.35
2022-08-14T02:21:57.855Z,4.43
2022-08-14T02:24:07.046Z,6.72
2022-08-14T02:26:33.881Z,4.18
2022-08-14T02:29:00.925Z,7.35
2022-08-14T02:31:08.807Z,6.38
2022-08-14T02:33:11.921Z,4.55
2022-08-14T02:35:17.745Z,4.72
2022-08-14T02:37:21.406Z,6.15
2022-08-14T02:39:24.342Z,9.35
2022-08-14T02:41:36.662Z,8.13
2022-08-14T02:43:46.211Z,6.40
2022-08-14T02:45:49.565Z,5.45
2022-08-14T02:47:53.742Z,5.30
2022-08-14T02:50:00.525Z,6.13
2022-08-14T02:52:56.263Z,5.90
2022-08-14T02:54:30.418Z,10.18
2022-08-14T02:57:16.396Z,5.88
2022-08-14T02:59:01.847Z,6.50
2022-08-14T03:01:09.810Z,6.07
2022-08-14T03:03:12.767Z,6.68
2022-08-14T03:05:16.529Z,8.07
2022-08-14T03:07:19.600Z,7.63
2022-08-14T03:09:22.567Z,8.05
2022-08-14T03:11:26.448Z,9.95
2022-08-14T03:13:41.372Z,5.93
2022-08-14T03:15:47.608Z,6.13
2022-08-14T03:17:56.940Z,4.82
2022-08-14T03:20:01.057Z,6.53
2022-08-14T03:22:04.786Z,6.90
2022-08-14T03:24:21.337Z,11.00
2022-08-14T03:26:29.928Z,8.43
2022-08-14T03:28:33.757Z,7.10
2022-08-14T03:30:40.966Z,8.02
2022-08-14T03:32:44.761Z,10.50
2022-08-14T03:37:28.741Z,7.45
2022-08-14T03:39:24.473Z,7.18
2022-08-14T03:41:33.124Z,8.82
2022-08-14T03:43:37.064Z,6.45
2022-08-14T03:45:48.622Z,8.65
2022-08-14T03:47:58.909Z,5.38
2022-08-14T03:50:05.472Z,6.68
2022-08-14T03:52:27.989Z,9.82
2022-08-14T03:54:35.285Z,6.90
2022-08-14T03:56:40.524Z,8.25
2022-08-14T03:58:47.811Z,7.13
2022-08-14T04:00:53.809Z,10.10
2022-08-14T04:05:12.145Z,12.70
2022-08-14T04:07:16.162Z,9.15
2022-08-14T04:09:21.398Z,8.57
2022-08-14T04:11:29.853Z,9.68
2022-08-14T04:13:35.371Z,7.57
2022-08-14T04:15:56.107Z,9.90
2022-08-14T04:18:08.564Z,8.18
2022-08-14T04:20:15.345Z,10.23
2022-08-14T04:22:28.755Z,10.63
2022-08-14T04:24:38.531Z,8.73
2022-08-14T04:26:44.381Z,7.30
2022-08-14T04:29:07.189Z,8.43
2022-08-14T04:31:11.407Z,9.82
2022-08-14T04:33:20.691Z,8.23
2022-08-14T04:35:24.440Z,8.98
2022-08-14T04:38:35.786Z,7.82
2022-08-14T04:40:45.419Z,9.63
2022-08-14T04:43:05.631Z,8.52
2022-08-14T04:45:08.911Z,9.65
2022-08-14T04:47:25.667Z,10.35
2022-08-14T04:49:38.345Z,8.00
2022-08-14T04:51:55.841Z,9.02
2022-08-14T04:54:00.558Z,7.72
2022-08-14T04:58:09.290Z,10.25
2022-08-14T05:00:24.957Z,8.02
2022-08-14T05:02:28.285Z,7.15
2022-08-14T05:04:31.837Z,8.18
2022-08-14T05:06:38.970Z,10.40
2022-08-14T05:08:56.845Z,9.88
2022-08-14T05:11:04.942Z,11.20
2022-08-14T05:13:24.527Z,9.13
2022-08-14T05:15:32.043Z,9.32
2022-08-14T05:17:43.821Z,9.95
2022-08-14T05:21:56.619Z,10.88
2022-08-14T05:22:17.080Z,10.55
2022-08-14T05:24:21.950Z,12.85
2022-08-14T05:26:24.781Z,11.73
2022-08-14T05:28:29.573Z,11.73
2022-08-14T05:30:32.492Z,15.55
2022-08-14T05:32:35.673Z,10.48
2022-08-14T05:34:40.057Z,10.15
2022-08-14T05:36:50.659Z,10.27
2022-08-14T05:39:07.327Z,10.93
2022-08-14T05:41:13.319Z,10.07
2022-08-14T05:43:17.000Z,9.80
2022-08-14T05:45:20.040Z,10.63
2022-08-14T05:47:22.870Z,9.90
2022-08-14T05:49:33.093Z,10.20
2022-08-14T05:51:36.938Z,11.00
2022-08-14T05:53:42.255Z,10.53
2022-08-14T05:55:46.874Z,10.48
2022-08-14T05:57:53.576Z,9.68
2022-08-14T05:59:56.576Z,12.73
2022-08-14T06:01:59.775Z,14.73
2022-08-14T06:04:05.493Z,11.35
2022-08-14T06:06:09.008Z,13.90
2022-08-14T06:08:21.749Z,11.10
2022-08-14T06:10:38.984Z,13.77
2022-08-14T06:12:56.007Z,13.18
2022-08-14T06:15:00.201Z,10.55
2022-08-14T06:17:03.097Z,14.70
2022-08-14T06:19:06.466Z,11.88
2022-08-14T06:21:15.727Z,14.50
2022-08-14T06:23:20.702Z,12.05
2022-08-14T06:25:26.023Z,13.68
2022-08-14T06:27:33.983Z,13.97
2022-08-14T06:29:39.818Z,13.82
2022-08-14T06:31:42.672Z,17.00
2022-08-14T06:35:01.521Z,11.57
2022-08-14T06:36:09.399Z,17.75
2022-08-14T06:38:17.339Z,13.05
2022-08-14T06:40:26.091Z,13.20
2022-08-14T06:42:32.605Z,14.18
2022-08-14T06:44:36.073Z,13.45
2022-08-14T06:46:40.712Z,13.45
2022-08-14T06:48:44.046Z,16.27
2022-08-14T06:50:48.101Z,16.45
2022-08-14T06:52:52.138Z,15.20
2022-08-14T06:54:57.035Z,13.68
2022-08-14T06:57:00.048Z,11.85
2022-08-14T06:59:03.065Z,15.68
2022-08-14T07:01:27.462Z,20.98
2022-08-14T07:03:49.920Z,16.27
2022-08-14T07:05:55.468Z,13.90
2022-08-14T07:08:00.531Z,12.70
2022-08-14T07:10:05.058Z,11.85
2022-08-14T07:12:09.009Z,10.48
2022-08-14T07:14:32.087Z,9.98
2022-08-14T07:16:35.282Z,13.30
2022-08-14T07:18:41.503Z,12.73
2022-08-14T07:20:45.744Z,13.05
2022-08-14T07:22:49.819Z,12.10
2022-08-14T07:24:59.707Z,11.85
2022-08-14T07:27:03.012Z,9.75
2022-08-14T07:29:05.860Z,12.88
2022-08-14T07:31:11.533Z,10.48
2022-08-14T07:33:14.536Z,12.50
2022-08-14T07:35:19.861Z,10.43
2022-08-14T07:37:22.718Z,9.65
2022-08-14T07:39:27.466Z,8.27
2022-08-14T07:41:33.800Z,11.55
2022-08-14T07:43:39.469Z,9.73
2022-08-14T07:45:43.166Z,9.05
2022-08-14T07:47:46.093Z,7.45
2022-08-14T07:49:59.754Z,14.82
2022-08-14T07:52:04.953Z,8.68
2022-08-14T07:54:11.412Z,12.75
2022-08-14T07:56:22.095Z,8.65
2022-08-14T07:58:39.012Z,9.35
2022-08-14T08:00:56.676Z,12.45
2022-08-14T08:03:00.638Z,7.78
2022-08-14T08:05:03.996Z,6.70
2022-08-14T08:07:09.224Z,9.48
2022-08-14T08:09:13.641Z,8.48
2022-08-14T08:11:19.365Z,10.80
2022-08-14T08:13:24.499Z,10.82
2022-08-14T08:15:29.799Z,8.57
2022-08-14T08:17:42.373Z,7.22
2022-08-14T08:19:47.386Z,7.63
2022-08-14T08:21:54.726Z,8.88
2022-08-14T08:23:58.950Z,8.93
2022-08-14T08:26:01.848Z,10.13
2022-08-14T08:28:08.183Z,10.48
2022-08-14T08:30:12.833Z,10.55
2022-08-14T08:34:19.232Z,8.13
2022-08-14T08:36:24.221Z,7.70
2022-08-14T08:39:18.871Z,10.98
2022-08-14T08:41:00.795Z,7.80
2022-08-14T08:43:06.516Z,8.80
2022-08-14T08:45:17.295Z,9.98
2022-08-14T08:47:20.415Z,8.68
2022-08-14T08:49:23.310Z,11.38
2022-08-14T08:51:30.791Z,8.40
2022-08-14T08:53:35.636Z,8.75
2022-08-14T08:55:40.685Z,8.20
2022-08-14T08:57:46.588Z,6.90
2022-08-14T08:59:55.339Z,7.50
2022-08-14T09:02:04.174Z,6.05
2022-08-14T09:04:14.657Z,7.18
2022-08-14T09:07:01.311Z,6.93
2022-08-14T09:08:47.100Z,8.02
2022-08-14T09:10:52.454Z,5.55
2022-08-14T09:13:01.117Z,6.53
2022-08-14T09:15:09.123Z,4.90
2022-08-14T09:17:15.750Z,8.63
2022-08-14T09:19:19.125Z,5.40
2022-08-14T09:21:31.574Z,5.70
2022-08-14T09:24:26.490Z,6.15
2022-08-14T09:26:00.899Z,8.93
2022-08-14T09:28:07.258Z,5.05
2022-08-14T09:30:30.973Z,5.50
2022-08-14T09:32:58.966Z,4.65
2022-08-14T09:35:13.997Z,4.57
2022-08-14T09:37:33.120Z,7.85
2022-08-14T09:39:49.816Z,6.90
2022-08-14T09:42:20.118Z,5.35
2022-08-14T09:44:49.577Z,5.13
2022-08-14T09:46:56.564Z,4.57
2022-08-14T09:49:03.343Z,6.50
2022-08-14T09:51:09.733Z,9.63
2022-08-14T09:53:19.819Z,5.07
2022-08-14T09:55:25.099Z,4.88
2022-08-14T09:57:30.996Z,5.00
2022-08-14T09:59:46.061Z,5.65
2022-08-14T10:01:52.611Z,8.48
2022-08-14T10:03:59.634Z,3.53
2022-08-14T10:06:07.086Z,4.65
2022-08-14T10:08:25.337Z,10.60
2022-08-14T10:10:34.623Z,4.70
2022-08-14T10:12:45.873Z,5.22
2022-08-14T10:14:53.375Z,6.30
2022-08-14T10:16:58.441Z,4.40
2022-08-14T10:19:05.121Z,4.63
2022-08-14T10:21:25.560Z,6.75
2022-08-14T10:23:49.966Z,6.78
2022-08-14T10:26:01.789Z,3.90
2022-08-14T10:28:04.739Z,6.25
2022-08-14T10:30:22.500Z,7.40
2022-08-14T10:32:36.343Z,7.10
2022-08-14T10:34:43.066Z,3.92
2022-08-14T10:36:50.248Z,5.63
2022-08-14T10:39:08.259Z,6.07
2022-08-14T10:41:17.111Z,3.03
2022-08-14T10:43:23.825Z,4.15
2022-08-14T10:45:34.078Z,3.97
2022-08-14T10:48:07.450Z,4.60
2022-08-14T10:50:02.728Z,2.95
2022-08-14T10:52:08.465Z,3.05
2022-08-14T10:54:26.204Z,11.18
2022-08-14T10:56:35.753Z,2.92
2022-08-14T11:00:56.854Z,7.68
2022-08-14T11:03:02.611Z,3.28
2022-08-14T11:05:13.047Z,3.75
2022-08-14T11:07:21.250Z,13.13
2022-08-14T11:09:25.966Z,5.32
2022-08-14T11:11:35.917Z,5.05
2022-08-14T11:13:44.053Z,3.35
2022-08-14T11:15:50.852Z,5.90
2022-08-14T11:18:01.366Z,5.40
2022-08-14T11:20:14.123Z,4.72
2022-08-14T11:22:52.813Z,3.20
2022-08-14T11:24:53.950Z,3.63
2022-08-14T11:27:01.215Z,5.78
2022-08-14T11:29:05.747Z,4.57
2022-08-14T11:31:13.838Z,3.92
2022-08-14T11:33:16.794Z,5.18
2022-08-14T11:35:21.326Z,2.97
2022-08-14T11:37:36.906Z,3.85
2022-08-14T11:39:43.305Z,3.95
2022-08-14T11:41:56.089Z,6.13
2022-08-14T11:43:59.765Z,3.50
2022-08-14T11:46:03.626Z,4.65
2022-08-14T11:49:03.675Z,2.85
2022-08-14T11:50:41.948Z,4.45
2022-08-14T11:52:46.865Z,3.45
2022-08-14T11:55:00.441Z,2.30
2022-08-14T11:57:04.401Z,3.45
2022-08-14T11:59:10.128Z,3.63
2022-08-14T12:01:16.065Z,7.40
2022-08-14T12:03:27.329Z,2.63
2022-08-14T12:05:43.367Z,2.65
2022-08-14T12:07:50.097Z,2.22
2022-08-14T12:09:56.070Z,5.32
2022-08-14T12:11:59.951Z,3.95
2022-08-14T12:14:08.405Z,4.07
2022-08-14T12:16:20.661Z,2.58
2022-08-14T12:18:34.387Z,4.63
2022-08-14T12:20:45.732Z,6.25
2022-08-14T12:22:55.121Z,3.38
2022-08-14T12:24:58.081Z,2.25
2022-08-14T12:27:02.491Z,5.32
2022-08-14T12:29:08.612Z,2.53
2022-08-14T12:31:20.653Z,5.57
2022-08-14T12:33:30.756Z,3.92
2022-08-14T12:35:40.601Z,2.03
2022-08-14T12:37:49.386Z,3.80
2022-08-14T12:39:53.617Z,3.22
2022-08-14T12:42:06.171Z,3.30
2022-08-14T12:44:09.034Z,4.97
2022-08-14T12:46:26.574Z,3.25
2022-08-14T12:48:32.281Z,4.97
2022-08-14T12:50:39.178Z,3.58
2022-08-14T12:52:58.685Z,3.53
2022-08-14T12:55:12.496Z,5.38
2022-08-14T12:57:19.813Z,3.05
2022-08-14T12:59:31.331Z,3.50
2022-08-14T13:01:59.738Z,3.72
2022-08-14T13:04:10.198Z,3.55
2022-08-14T13:06:15.576Z,2.67
2022-08-14T13:08:34.160Z,6.38
2022-08-14T13:10:51.957Z,3.45
2022-08-14T13:13:15.821Z,6.55
2022-08-14T13:15:19.878Z,3.80
2022-08-14T13:17:25.316Z,3.47
2022-08-14T13:19:30.008Z,3.03
2022-08-14T13:22:04.726Z,2.40
2022-08-14T13:23:58.486Z,4.65
2022-08-14T13:26:01.597Z,5.05
2022-08-14T13:28:11.173Z,4.93
2022-08-14T13:30:23.704Z,5.07
2022-08-14T13:32:27.576Z,2.63
2022-08-14T13:34:31.635Z,3.13
2022-08-14T13:36:51.619Z,8.55
2022-08-14T13:39:01.434Z,3.28
2022-08-14T13:41:06.150Z,2.88
2022-08-14T13:43:09.818Z,6.43
2022-08-14T13:45:14.907Z,2.65
2022-08-14T13:47:20.668Z,7.53
2022-08-14T13:49:24.143Z,3.00
2022-08-14T13:51:29.913Z,5.70
2022-08-14T13:53:52.634Z,2.45
2022-08-14T13:56:07.538Z,4.07
2022-08-14T13:58:33.699Z,4.55
2022-08-14T14:00:53.425Z,3.10
2022-08-14T14:02:59.743Z,4.68
2022-08-14T14:05:08.421Z,3.35
2022-08-14T14:07:14.097Z,2.67
2022-08-14T14:09:26.912Z,8.32
2022-08-14T14:11:37.338Z,3.53
2022-08-14T14:13:42.067Z,1.92
2022-08-14T14:15:58.728Z,4.35
2022-08-14T14:18:03.133Z,2.30
2022-08-14T14:20:11.375Z,4.35
2022-08-14T14:23:01.328Z,6.68
2022-08-14T14:24:58.820Z,3.72
2022-08-14T14:27:18.376Z,5.35
2022-08-14T14:29:27.139Z,4.18
2022-08-14T14:31:32.392Z,3.72
2022-08-14T14:33:52.081Z,3.00
2022-08-14T14:35:55.753Z,4.32
2022-08-14T14:37:59.697Z,3.08
2022-08-14T14:40:52.182Z,4.13
2022-08-14T14:42:35.441Z,3.05
2022-08-14T14:44:41.263Z,4.75
2022-08-14T14:46:50.968Z,2.90
2022-08-14T14:48:56.245Z,3.97
2022-08-14T14:51:01.397Z,2.88
2022-08-14T14:53:13.481Z,4.47
2022-08-14T14:55:19.423Z,2.70
2022-08-14T14:57:22.281Z,3.15
2022-08-14T14:59:26.005Z,3.88
2022-08-14T15:01:34.502Z,3.03
2022-08-14T15:03:38.533Z,3.10
2022-08-14T15:05:42.855Z,3.30
2022-08-14T15:07:47.050Z,3.00
2022-08-14T15:09:51.184Z,3.75
2022-08-14T15:11:57.560Z,3.10
2022-08-14T15:14:02.583Z,3.70
2022-08-14T15:16:25.563Z,2.20
2022-08-14T15:18:36.810Z,2.25
2022-08-14T15:20:41.882Z,2.50
2022-08-14T15:22:51.291Z,2.55
2022-08-14T15:24:54.538Z,3.95
2022-08-14T15:26:59.775Z,2.15
2022-08-14T15:29:05.644Z,2.08
2022-08-14T15:31:08.840Z,4.82
2022-08-14T15:33:14.278Z,4.35
2022-08-14T15:35:17.197Z,2.25
2022-08-14T15:37:25.149Z,3.72
2022-08-14T15:39:38.393Z,2.42
2022-08-14T15:41:42.074Z,2.78
2022-08-14T15:43:50.167Z,3.70
2022-08-14T15:45:57.729Z,5.93
2022-08-14T15:48:01.960Z,4.28
2022-08-14T15:50:09.631Z,2.97
2022-08-14T15:52:12.578Z,4.32
2022-08-14T15:54:16.352Z,5.93
2022-08-14T15:56:42.133Z,2.20
2022-08-14T15:58:44.531Z,2.35
2022-08-14T16:01:08.187Z,2.88
2022-08-14T16:03:15.645Z,3.00
2022-08-14T16:05:25.399Z,2.60
2022-08-14T16:07:28.965Z,11.63
2022-08-14T16:09:31.834Z,4.22
2022-08-14T16:11:35.351Z,2.33
2022-08-14T16:13:42.992Z,3.63
2022-08-14T16:15:53.462Z,3.38
2022-08-14T16:17:58.319Z,4.72
2022-08-14T16:20:03.200Z,5.32
2022-08-14T16:22:57.498Z,2.38
2022-08-14T16:24:34.692Z,4.07
2022-08-14T16:26:39.190Z,3.25
2022-08-14T16:28:46.408Z,5.05
2022-08-14T16:30:54.332Z,4.20
2022-08-14T16:33:01.027Z,3.85
2022-08-14T16:35:05.420Z,2.78
2022-08-14T16:37:12.543Z,2.97
2022-08-14T16:39:16.714Z,2.03
2022-08-14T16:41:30.091Z,3.63
2022-08-14T16:43:33.174Z,2.75
2022-08-14T16:45:43.744Z,4.75
2022-08-14T16:47:47.791Z,3.97
2022-08-14T16:50:04.324Z,2.38
2022-08-14T16:52:25.472Z,1.90
2022-08-14T16:54:44.417Z,4.60
2022-08-14T16:56:48.260Z,2.92
2022-08-14T16:59:05.096Z,3.55
2022-08-14T17:01:24.521Z,2.70
2022-08-14T17:03:29.006Z,3.28
2022-08-14T17:05:46.907Z,2.58
2022-08-14T17:08:41.825Z,3.75
2022-08-14T17:10:59.852Z,4.72
2022-08-14T17:13:17.170Z,3.42
2022-08-14T17:15:20.065Z,1.92
2022-08-14T17:17:27.271Z,3.08
2022-08-14T17:19:40.079Z,2.53
2022-08-14T17:21:46.957Z,2.30
2022-08-14T17:23:52.274Z,3.90
2022-08-14T17:25:55.512Z,2.47
2022-08-14T17:28:50.150Z,4.55
2022-08-14T17:30:50.053Z,2.70
2022-08-14T17:32:56.951Z,4.70
2022-08-14T17:35:01.565Z,4.82
2022-08-14T17:37:06.938Z,6.40
2022-08-14T17:39:23.001Z,2.55
2022-08-14T17:41:33.079Z,2.67
2022-08-14T17:43:54.899Z,2.92
2022-08-14T17:45:58.240Z,2.38
2022-08-14T17:48:01.770Z,3.65
2022-08-14T17:51:00.373Z,2.13
2022-08-14T17:52:40.848Z,6.43
2022-08-14T17:54:52.652Z,2.63
2022-08-14T17:57:01.008Z,10.07
2022-08-14T17:59:06.885Z,4.50
2022-08-14T18:01:14.183Z,2.15
2022-08-14T18:03:18.643Z,2.67
2022-08-14T18:06:07.340Z,2.97
2022-08-14T18:08:34.474Z,2.65
2022-08-14T18:10:55.423Z,3.30
2022-08-14T18:12:56.356Z,6.35
2022-08-14T18:17:20.544Z,3.38
2022-08-14T18:19:27.747Z,3.58
2022-08-14T18:21:56.059Z,7.53
2022-08-14T18:23:54.956Z,4.00
2022-08-14T18:25:59.480Z,2.95
2022-08-14T18:28:16.273Z,5.28
2022-08-14T18:30:32.144Z,5.00
2022-08-14T18:32:47.266Z,5.05
2022-08-14T18:35:00.439Z,4.53
2022-08-14T18:37:17.719Z,4.28
2022-08-14T18:39:31.646Z,5.38
2022-08-14T18:41:37.019Z,7.07
2022-08-14T18:43:43.558Z,4.18
2022-08-14T18:46:01.688Z,10.48
2022-08-14T18:48:33.556Z,6.10
2022-08-14T18:50:53.055Z,5.05
2022-08-14T18:53:06.813Z,5.97
2022-08-14T18:55:53.446Z,5.05
2022-08-14T18:58:24.504Z,3.65
2022-08-14T19:00:51.281Z,4.78
2022-08-14T19:02:55.260Z,4.18
2022-08-14T19:05:02.495Z,4.43
2022-08-14T19:07:16.588Z,5.05
2022-08-14T19:09:53.138Z,4.25
2022-08-14T19:11:56.102Z,6.20
2022-08-14T19:14:04.897Z,6.72
2022-08-14T19:16:13.411Z,6.13
2022-08-14T19:18:27.869Z,8.05
2022-08-14T19:20:46.553Z,6.45
2022-08-14T19:23:14.170Z,8.98
2022-08-14T19:25:51.803Z,7.10
2022-08-14T19:28:31.867Z,6.28
2022-08-14T19:30:36.880Z,5.38
2022-08-14T19:32:40.788Z,9.27
2022-08-14T19:34:52.801Z,13.30
2022-08-14T19:37:05.773Z,8.63
2022-08-14T19:39:09.697Z,5.28
2022-08-14T19:41:17.164Z,8.55
2022-08-14T19:43:50.684Z,3.70
2022-08-14T19:45:56.458Z,5.10
2022-08-14T19:47:59.577Z,8.02
2022-08-14T19:50:24.639Z,7.57
2022-08-14T19:52:30.105Z,6.82
2022-08-14T19:54:38.455Z,4.60
2022-08-14T19:56:45.048Z,3.97
2022-08-14T19:58:55.010Z,5.22
2022-08-14T20:01:01.761Z,9.68
2022-08-14T20:03:15.128Z,10.52
2022-08-14T20:05:21.709Z,6.97
2022-08-14T20:08:00.597Z,5.72
2022-08-14T20:11:04.042Z,3.22
2022-08-14T20:12:29.055Z,4.72
2022-08-14T20:14:38.888Z,8.40
2022-08-14T20:16:45.680Z,5.33
2022-08-14T20:18:50.807Z,6.32
2022-08-14T20:20:54.173Z,5.28
2022-08-14T20:22:57.062Z,3.60
2022-08-14T20:25:16.428Z,7.95
2022-08-14T20:27:22.661Z,9.32
2022-08-14T20:29:31.153Z,6.80
2022-08-14T20:31:41.065Z,14.45
2022-08-14T20:34:24.347Z,7.50
2022-08-14T20:36:29.394Z,8.80
2022-08-14T20:38:33.319Z,5.05
2022-08-14T20:40:39.179Z,10.02
2022-08-14T20:43:13.347Z,4.28
2022-08-14T20:45:21.610Z,10.07
2022-08-14T20:47:27.353Z,5.38
2022-08-14T20:49:58.591Z,4.88
2022-08-14T20:52:19.243Z,3.38
2022-08-14T20:54:34.563Z,4.50
2022-08-14T20:56:41.109Z,5.68
2022-08-14T20:58:44.589Z,3.78
2022-08-14T21:00:52.106Z,7.43
2022-08-14T21:02:57.097Z,4.13
2022-08-14T21:07:33.552Z,6.00
2022-08-14T21:10:05.108Z,5.53
2022-08-14T21:12:02.818Z,5.65
2022-08-14T21:14:24.552Z,8.75
2022-08-14T21:16:34.304Z,6.78
2022-08-14T21:18:47.387Z,3.50
2022-08-14T21:20:51.171Z,8.07
2022-08-14T21:22:54.111Z,2.70
2022-08-14T21:25:02.182Z,4.55
2022-08-14T21:27:20.214Z,3.55
2022-08-14T21:29:25.507Z,3.00
2022-08-14T21:31:31.001Z,2.85
2022-08-14T21:35:44.375Z,4.22
2022-08-14T21:37:50.463Z,5.75
2022-08-14T21:39:57.193Z,6.65
2022-08-14T21:42:04.656Z,5.47
2022-08-14T21:44:18.299Z,8.55
2022-08-14T21:46:23.050Z,4.05
2022-08-14T21:48:29.890Z,4.38
2022-08-14T21:50:59.853Z,4.32
2022-08-14T21:53:00.581Z,4.40
2022-08-14T21:55:10.372Z,5.60
2022-08-14T21:57:16.338Z,5.97
2022-08-14T21:59:24.368Z,3.63
2022-08-14T22:02:00.701Z,7.05
2022-08-14T22:03:59.326Z,6.88
2022-08-14T22:06:04.041Z,3.97
2022-08-14T22:08:11.980Z,8.38
2022-08-14T22:10:23.005Z,3.40
2022-08-14T22:12:58.793Z,3.38
2022-08-14T22:14:51.109Z,4.03
2022-08-14T22:17:01.868Z,3.53
2022-08-14T22:19:18.159Z,4.05
2022-08-14T22:21:22.759Z,3.33
2022-08-14T22:23:27.807Z,4.32
2022-08-14T22:25:34.131Z,3.35
2022-08-14T22:27:55.794Z,4.28
2022-08-14T22:29:59.639Z,5.10
2022-08-14T22:32:06.982Z,4.78
2022-08-14T22:34:15.069Z,4.72
2022-08-14T22:36:42.394Z,2.80
2022-08-14T22:38:50.429Z,4.18
2022-08-14T22:41:25.086Z,5.38
2022-08-14T22:43:19.634Z,3.72
2022-08-14T22:45:23.650Z,7.45
2022-08-14T22:47:26.567Z,5.03
2022-08-14T22:50:31.464Z,7.18
2022-08-14T22:52:31.792Z,5.10
2022-08-14T22:54:52.258Z,4.13
2022-08-14T22:56:57.761Z,2.08
2022-08-14T22:59:02.625Z,8.93
2022-08-14T23:01:11.849Z,5.93
2022-08-14T23:03:19.459Z,3.95
2022-08-14T23:05:38.653Z,3.95
2022-08-14T23:09:00.056Z,4.63
2022-08-14T23:10:32.523Z,5.68
2022-08-14T23:12:34.894Z,6.03
2022-08-14T23:14:38.827Z,8.57
2022-08-14T23:16:51.503Z,8.10
2022-08-14T23:19:00.917Z,6.90
2022-08-14T23:21:03.990Z,4.83
2022-08-14T23:23:12.893Z,3.40
2022-08-14T23:25:53.184Z,11.95
2022-08-14T23:28:03.064Z,8.02
2022-08-14T23:30:34.578Z,6.93
2022-08-14T23:32:36.466Z,3.60
2022-08-14T23:34:41.243Z,5.80
2022-08-14T23:36:55.421Z,6.80
2022-08-14T23:39:00.170Z,3.72
2022-08-14T23:43:17.300Z,6.15
2022-08-14T23:45:27.344Z,7.40
2022-08-14T23:47:51.167Z,4.38
2022-08-14T23:50:00.447Z,7.00
2022-08-14T23:52:50.125Z,5.57
2022-08-14T23:54:48.097Z,6.63
2022-08-14T23:57:02.350Z,5.63
2022-08-14T23:59:06.791Z,4.22
